Warning: Javascript must be enabled to use all the features on this page!


Page Loading - Please Wait...

Click to hideNews Bulletins

Peak Streamflow for the Nation

USGS 08401200 SOUTH SEVEN RIVERS NR LAKEWOOD, NM

Eddy County, New Mexico
Hydrologic Unit Code 13060011
Latitude  32°35'19", Longitude 104°25'17" NAD83
Drainage area 220  square miles
Gage datum 3,280 feet above NGVD29
Output formats
Table
Graph
Tab-separated file
peakfq (watstore) format
Reselect output format
Water
Year
Date Gage
Height
(feet)
Stream-
flow
(cfs)
1964 1964-07-12 7.98 1,050
1965 1965-05-30 21.80 25,500
1966 1966-08-23 18.15 20,100
1967 1967-08-10 15.10 12,300
1968 1968-07-06 10.58 4,430
1969 1969-09-21 4.73 80.0
1970 1969-10-20 9.68 2,220
1971 1971-09-23 11.90 4,650
1972 1972-06-17 6.33 558
1973 1973-07-28 6.05 474
1974 1974-09-21 18.20 18,200
1975 1974-10-22 7.62 808
1976 1976-09-24 6.16 242
1977 1977-08-14 5.03 17.0
1978 1978-07-22 14.90 7,090
1979 1978-10-22 5.18 15.0
1980 1980-09-14 6.46 225
1981 1981-07-09 7.36 561
1982 1982-09-20 9.53 2,020
1983 1983-09-28 5.75 36.0
1984 1984-08-10 17.27 16,000
1985 1985-09-20 5.85 18.0
1986 1986-06-24 15.38 11,300
1987 1986-10-24 6.61 238
1988 1988-09-20 13.78 8,440
1989 1989   0.00Bm
1990 1990   0.00Bm
1991 1991-08-17 11.73 4,770
1992 1992-05-25 6.70 269
1993 1992-10-01   0.00
1994 1994-05-21 8.40 1,160
1995 1995-06-30 7.65 698
1996 1996-08-31 15.76 12,800
2000 2000-06-30 6.46 64.0
2001 2000-10-21 7.37 127
2002 2002-09-15 10.26 854
2003 2003-08-29 4.36 20.0
2004 2004-04-04 9.65 650
2005 2005-08-29 7.76 953
2006 2006-09-02 4.45 35.02
2007 2007-05-03 5.15 135
2008 2008-08-18 4.30 23.0
2009 2009-07-05 4.44 34.0
2010 2010-06-30 8.95 1,960
2011 2011-09-15 4.69 21.0
2012 2012-07-10 5.82 200
2013 2013-09-11 17.70 22,600
2014 2014-09-21 17.61R 15,100R
2015 2015   0.00Bm,R
2016 2015-10-03 5.34R 1.22R
2017 2017-04-13 7.87R 418R
2018 2018-07-31 6.15R 69.0R
2019 2019-06-04 12.69R 5,630R
2020 2019-10-01 8.91 854
2021 2021-08-14 17.43 21,000
?
  Peak Gage-Height Qualification Codes.
?
  Peak Streamflow Qualification Codes.